sensor_id;sensor_type;location;lat;lon;timestamp;P1;durP1;ratioP1;P2;durP2;ratioP2
9675;SDS011;4876;42.656;23.292;2024-02-21T00:02:07;7.20;;;3.53;;
9675;SDS011;4876;42.656;23.292;2024-02-21T00:04:32;5.68;;;3.03;;
9675;SDS011;4876;42.656;23.292;2024-02-21T00:06:58;6.35;;;2.95;;
9675;SDS011;4876;42.656;23.292;2024-02-21T00:09:24;6.80;;;3.20;;
9675;SDS011;4876;42.656;23.292;2024-02-21T00:11:49;7.03;;;3.10;;
9675;SDS011;4876;42.656;23.292;2024-02-21T00:14:15;7.50;;;3.30;;
9675;SDS011;4876;42.656;23.292;2024-02-21T00:16:41;5.78;;;3.08;;
9675;SDS011;4876;42.656;23.292;2024-02-21T00:19:06;6.32;;;2.95;;
9675;SDS011;4876;42.656;23.292;2024-02-21T00:21:32;4.60;;;2.80;;
9675;SDS011;4876;42.656;23.292;2024-02-21T00:23:57;6.18;;;3.38;;
9675;SDS011;4876;42.656;23.292;2024-02-21T00:26:23;6.47;;;2.90;;
9675;SDS011;4876;42.656;23.292;2024-02-21T00:28:48;8.15;;;3.50;;
9675;SDS011;4876;42.656;23.292;2024-02-21T00:31:14;6.35;;;3.50;;
9675;SDS011;4876;42.656;23.292;2024-02-21T00:33:39;5.43;;;2.88;;
9675;SDS011;4876;42.656;23.292;2024-02-21T00:36:05;5.95;;;3.25;;
9675;SDS011;4876;42.656;23.292;2024-02-21T00:38:30;4.28;;;2.42;;
9675;SDS011;4876;42.656;23.292;2024-02-21T00:40:56;5.57;;;2.95;;
9675;SDS011;4876;42.656;23.292;2024-02-21T00:43:21;5.45;;;2.78;;
9675;SDS011;4876;42.656;23.292;2024-02-21T00:48:15;5.05;;;3.28;;
9675;SDS011;4876;42.656;23.292;2024-02-21T00:50:41;5.90;;;3.25;;
9675;SDS011;4876;42.656;23.292;2024-02-21T00:53:07;6.05;;;3.33;;
9675;SDS011;4876;42.656;23.292;2024-02-21T00:55:32;5.25;;;3.05;;
9675;SDS011;4876;42.656;23.292;2024-02-21T00:57:58;7.65;;;4.10;;
9675;SDS011;4876;42.656;23.292;2024-02-21T01:00:23;6.18;;;3.13;;
9675;SDS011;4876;42.656;23.292;2024-02-21T01:02:49;5.97;;;3.25;;
9675;SDS011;4876;42.656;23.292;2024-02-21T01:05:14;8.65;;;3.85;;
9675;SDS011;4876;42.656;23.292;2024-02-21T01:07:40;5.93;;;3.25;;
9675;SDS011;4876;42.656;23.292;2024-02-21T01:10:06;5.30;;;2.83;;
9675;SDS011;4876;42.656;23.292;2024-02-21T01:12:32;7.28;;;4.03;;
9675;SDS011;4876;42.656;23.292;2024-02-21T01:14:57;7.00;;;3.88;;
9675;SDS011;4876;42.656;23.292;2024-02-21T01:17:23;8.25;;;3.35;;
9675;SDS011;4876;42.656;23.292;2024-02-21T01:19:48;6.68;;;3.55;;
9675;SDS011;4876;42.656;23.292;2024-02-21T01:22:14;5.93;;;3.60;;
9675;SDS011;4876;42.656;23.292;2024-02-21T01:24:41;7.10;;;3.53;;
9675;SDS011;4876;42.656;23.292;2024-02-21T01:27:06;6.32;;;3.45;;
9675;SDS011;4876;42.656;23.292;2024-02-21T01:29:32;6.82;;;3.60;;
9675;SDS011;4876;42.656;23.292;2024-02-21T01:31:57;7.60;;;3.92;;
9675;SDS011;4876;42.656;23.292;2024-02-21T01:34:23;6.85;;;3.78;;
9675;SDS011;4876;42.656;23.292;2024-02-21T01:36:49;7.65;;;3.65;;
9675;SDS011;4876;42.656;23.292;2024-02-21T01:39:14;6.50;;;3.58;;
9675;SDS011;4876;42.656;23.292;2024-02-21T01:41:40;7.43;;;3.95;;
9675;SDS011;4876;42.656;23.292;2024-02-21T01:44:05;7.90;;;3.88;;
9675;SDS011;4876;42.656;23.292;2024-02-21T01:46:31;7.85;;;4.10;;
9675;SDS011;4876;42.656;23.292;2024-02-21T01:48:57;7.05;;;4.10;;
9675;SDS011;4876;42.656;23.292;2024-02-21T01:51:23;9.75;;;4.93;;
9675;SDS011;4876;42.656;23.292;2024-02-21T01:53:49;10.05;;;4.72;;
9675;SDS011;4876;42.656;23.292;2024-02-21T01:56:17;8.55;;;4.30;;
9675;SDS011;4876;42.656;23.292;2024-02-21T01:58:42;11.00;;;5.57;;
9675;SDS011;4876;42.656;23.292;2024-02-21T02:01:11;10.70;;;5.40;;
9675;SDS011;4876;42.656;23.292;2024-02-21T02:03:37;8.25;;;4.70;;
9675;SDS011;4876;42.656;23.292;2024-02-21T02:06:04;12.27;;;5.32;;
9675;SDS011;4876;42.656;23.292;2024-02-21T02:10:57;11.07;;;5.32;;
9675;SDS011;4876;42.656;23.292;2024-02-21T02:13:22;13.68;;;6.03;;
9675;SDS011;4876;42.656;23.292;2024-02-21T02:15:48;13.82;;;6.05;;
9675;SDS011;4876;42.656;23.292;2024-02-21T02:18:15;12.07;;;5.50;;
9675;SDS011;4876;42.656;23.292;2024-02-21T02:20:42;13.10;;;6.55;;
9675;SDS011;4876;42.656;23.292;2024-02-21T02:25:59;12.38;;;5.63;;
9675;SDS011;4876;42.656;23.292;2024-02-21T02:28:26;13.35;;;6.60;;
9675;SDS011;4876;42.656;23.292;2024-02-21T02:30:52;13.57;;;6.50;;
9675;SDS011;4876;42.656;23.292;2024-02-21T02:33:18;11.88;;;5.85;;
9675;SDS011;4876;42.656;23.292;2024-02-21T02:35:44;13.45;;;6.50;;
9675;SDS011;4876;42.656;23.292;2024-02-21T02:38:10;13.18;;;6.22;;
9675;SDS011;4876;42.656;23.292;2024-02-21T02:40:37;12.35;;;6.43;;
9675;SDS011;4876;42.656;23.292;2024-02-21T02:43:03;13.73;;;6.70;;
9675;SDS011;4876;42.656;23.292;2024-02-21T02:45:28;12.40;;;5.60;;
9675;SDS011;4876;42.656;23.292;2024-02-21T02:47:54;14.07;;;7.10;;
9675;SDS011;4876;42.656;23.292;2024-02-21T02:50:22;12.60;;;5.63;;
9675;SDS011;4876;42.656;23.292;2024-02-21T02:52:51;13.00;;;5.95;;
9675;SDS011;4876;42.656;23.292;2024-02-21T02:55:17;11.68;;;5.75;;
9675;SDS011;4876;42.656;23.292;2024-02-21T02:57:43;13.05;;;6.22;;
9675;SDS011;4876;42.656;23.292;2024-02-21T03:00:10;11.27;;;5.35;;
9675;SDS011;4876;42.656;23.292;2024-02-21T03:02:37;14.55;;;5.97;;
9675;SDS011;4876;42.656;23.292;2024-02-21T03:05:10;12.32;;;5.57;;
9675;SDS011;4876;42.656;23.292;2024-02-21T03:07:43;13.07;;;6.32;;
9675;SDS011;4876;42.656;23.292;2024-02-21T03:10:09;12.63;;;5.65;;
9675;SDS011;4876;42.656;23.292;2024-02-21T03:12:35;15.07;;;5.47;;
9675;SDS011;4876;42.656;23.292;2024-02-21T03:15:01;13.27;;;6.65;;
9675;SDS011;4876;42.656;23.292;2024-02-21T03:17:27;15.48;;;6.75;;
9675;SDS011;4876;42.656;23.292;2024-02-21T03:19:53;13.68;;;5.90;;
9675;SDS011;4876;42.656;23.292;2024-02-21T03:22:20;12.38;;;6.70;;
9675;SDS011;4876;42.656;23.292;2024-02-21T03:24:46;14.45;;;6.82;;
9675;SDS011;4876;42.656;23.292;2024-02-21T03:27:11;14.55;;;6.93;;
9675;SDS011;4876;42.656;23.292;2024-02-21T03:29:37;12.57;;;6.60;;
9675;SDS011;4876;42.656;23.292;2024-02-21T03:32:03;15.05;;;7.18;;
9675;SDS011;4876;42.656;23.292;2024-02-21T03:34:28;12.55;;;6.13;;
9675;SDS011;4876;42.656;23.292;2024-02-21T03:36:54;13.90;;;6.43;;
9675;SDS011;4876;42.656;23.292;2024-02-21T03:39:19;13.48;;;5.97;;
9675;SDS011;4876;42.656;23.292;2024-02-21T03:41:46;14.60;;;7.50;;
9675;SDS011;4876;42.656;23.292;2024-02-21T03:44:12;12.90;;;6.22;;
9675;SDS011;4876;42.656;23.292;2024-02-21T03:46:37;18.30;;;7.07;;
9675;SDS011;4876;42.656;23.292;2024-02-21T03:49:03;16.42;;;7.40;;
9675;SDS011;4876;42.656;23.292;2024-02-21T03:51:28;15.63;;;7.20;;
9675;SDS011;4876;42.656;23.292;2024-02-21T03:53:54;14.85;;;6.97;;
9675;SDS011;4876;42.656;23.292;2024-02-21T03:56:19;15.88;;;6.75;;
9675;SDS011;4876;42.656;23.292;2024-02-21T03:58:45;17.55;;;8.38;;
9675;SDS011;4876;42.656;23.292;2024-02-21T04:01:10;11.98;;;7.55;;
9675;SDS011;4876;42.656;23.292;2024-02-21T04:03:37;14.85;;;7.97;;
9675;SDS011;4876;42.656;23.292;2024-02-21T04:06:03;15.57;;;7.97;;
9675;SDS011;4876;42.656;23.292;2024-02-21T04:08:28;16.77;;;8.20;;
9675;SDS011;4876;42.656;23.292;2024-02-21T04:10:54;17.52;;;7.57;;
9675;SDS011;4876;42.656;23.292;2024-02-21T04:13:19;14.80;;;7.05;;
9675;SDS011;4876;42.656;23.292;2024-02-21T04:15:45;17.38;;;8.18;;
9675;SDS011;4876;42.656;23.292;2024-02-21T04:18:10;15.70;;;7.75;;
9675;SDS011;4876;42.656;23.292;2024-02-21T04:20:36;15.77;;;7.45;;
9675;SDS011;4876;42.656;23.292;2024-02-21T04:23:01;20.50;;;8.60;;
9675;SDS011;4876;42.656;23.292;2024-02-21T04:25:27;18.13;;;8.30;;
9675;SDS011;4876;42.656;23.292;2024-02-21T04:27:53;15.43;;;8.90;;
9675;SDS011;4876;42.656;23.292;2024-02-21T04:30:18;15.20;;;7.70;;
9675;SDS011;4876;42.656;23.292;2024-02-21T04:32:44;17.52;;;8.63;;
9675;SDS011;4876;42.656;23.292;2024-02-21T04:35:10;14.23;;;6.70;;
9675;SDS011;4876;42.656;23.292;2024-02-21T04:37:35;16.95;;;7.57;;
9675;SDS011;4876;42.656;23.292;2024-02-21T04:40:01;15.80;;;8.32;;
9675;SDS011;4876;42.656;23.292;2024-02-21T04:42:26;19.63;;;8.57;;
9675;SDS011;4876;42.656;23.292;2024-02-21T04:44:52;16.17;;;8.30;;
9675;SDS011;4876;42.656;23.292;2024-02-21T04:47:18;15.63;;;7.78;;
9675;SDS011;4876;42.656;23.292;2024-02-21T04:49:45;18.35;;;8.68;;
9675;SDS011;4876;42.656;23.292;2024-02-21T04:52:11;15.50;;;7.55;;
9675;SDS011;4876;42.656;23.292;2024-02-21T04:54:36;17.33;;;7.80;;
9675;SDS011;4876;42.656;23.292;2024-02-21T04:57:02;15.63;;;7.35;;
9675;SDS011;4876;42.656;23.292;2024-02-21T04:59:28;15.00;;;7.07;;
9675;SDS011;4876;42.656;23.292;2024-02-21T05:01:54;15.45;;;8.00;;
9675;SDS011;4876;42.656;23.292;2024-02-21T05:04:20;16.10;;;7.38;;
9675;SDS011;4876;42.656;23.292;2024-02-21T05:06:45;16.30;;;8.20;;
9675;SDS011;4876;42.656;23.292;2024-02-21T05:09:11;16.60;;;8.05;;
9675;SDS011;4876;42.656;23.292;2024-02-21T05:11:37;15.38;;;7.38;;
9675;SDS011;4876;42.656;23.292;2024-02-21T05:14:03;14.65;;;7.50;;
9675;SDS011;4876;42.656;23.292;2024-02-21T05:16:29;17.40;;;8.25;;
9675;SDS011;4876;42.656;23.292;2024-02-21T05:18:55;16.45;;;8.20;;
9675;SDS011;4876;42.656;23.292;2024-02-21T05:21:22;19.30;;;8.40;;
9675;SDS011;4876;42.656;23.292;2024-02-21T05:23:49;14.80;;;7.15;;
9675;SDS011;4876;42.656;23.292;2024-02-21T05:26:21;15.52;;;7.35;;
9675;SDS011;4876;42.656;23.292;2024-02-21T05:28:50;13.18;;;6.65;;
9675;SDS011;4876;42.656;23.292;2024-02-21T05:31:19;13.90;;;8.13;;
9675;SDS011;4876;42.656;23.292;2024-02-21T05:33:46;15.27;;;8.20;;
9675;SDS011;4876;42.656;23.292;2024-02-21T05:36:12;14.50;;;7.47;;
9675;SDS011;4876;42.656;23.292;2024-02-21T05:38:38;13.30;;;7.22;;
9675;SDS011;4876;42.656;23.292;2024-02-21T05:41:04;13.13;;;6.35;;
9675;SDS011;4876;42.656;23.292;2024-02-21T05:43:30;15.32;;;7.57;;
9675;SDS011;4876;42.656;23.292;2024-02-21T05:45:55;13.70;;;7.00;;
9675;SDS011;4876;42.656;23.292;2024-02-21T05:48:21;16.30;;;7.60;;
9675;SDS011;4876;42.656;23.292;2024-02-21T05:50:47;16.92;;;7.90;;
9675;SDS011;4876;42.656;23.292;2024-02-21T05:53:13;13.98;;;6.30;;
9675;SDS011;4876;42.656;23.292;2024-02-21T05:55:39;15.23;;;6.80;;
9675;SDS011;4876;42.656;23.292;2024-02-21T05:58:05;16.00;;;7.07;;
9675;SDS011;4876;42.656;23.292;2024-02-21T06:00:47;12.20;;;6.72;;
9675;SDS011;4876;42.656;23.292;2024-02-21T06:03:19;13.15;;;6.75;;
9675;SDS011;4876;42.656;23.292;2024-02-21T06:05:51;15.50;;;8.18;;
9675;SDS011;4876;42.656;23.292;2024-02-21T06:10:42;14.98;;;7.25;;
9675;SDS011;4876;42.656;23.292;2024-02-21T06:13:16;16.10;;;7.50;;
9675;SDS011;4876;42.656;23.292;2024-02-21T06:15:45;16.75;;;7.13;;
9675;SDS011;4876;42.656;23.292;2024-02-21T06:18:15;14.88;;;7.53;;
9675;SDS011;4876;42.656;23.292;2024-02-21T06:20:47;15.20;;;6.80;;
9675;SDS011;4876;42.656;23.292;2024-02-21T06:23:16;16.13;;;7.50;;
9675;SDS011;4876;42.656;23.292;2024-02-21T06:28:18;15.13;;;7.32;;
9675;SDS011;4876;42.656;23.292;2024-02-21T06:30:46;15.60;;;6.80;;
9675;SDS011;4876;42.656;23.292;2024-02-21T06:33:12;17.23;;;7.97;;
9675;SDS011;4876;42.656;23.292;2024-02-21T06:35:37;14.27;;;7.57;;
9675;SDS011;4876;42.656;23.292;2024-02-21T06:38:06;14.68;;;7.88;;
9675;SDS011;4876;42.656;23.292;2024-02-21T06:40:32;16.83;;;8.10;;
9675;SDS011;4876;42.656;23.292;2024-02-21T06:43:03;17.77;;;6.85;;
9675;SDS011;4876;42.656;23.292;2024-02-21T06:45:29;16.98;;;7.60;;
9675;SDS011;4876;42.656;23.292;2024-02-21T06:47:54;17.13;;;7.65;;
9675;SDS011;4876;42.656;23.292;2024-02-21T06:50:20;18.90;;;8.77;;
9675;SDS011;4876;42.656;23.292;2024-02-21T06:52:45;16.58;;;8.15;;
9675;SDS011;4876;42.656;23.292;2024-02-21T06:55:11;19.27;;;7.18;;
9675;SDS011;4876;42.656;23.292;2024-02-21T06:57:36;19.30;;;8.55;;
9675;SDS011;4876;42.656;23.292;2024-02-21T07:00:02;16.05;;;8.77;;
9675;SDS011;4876;42.656;23.292;2024-02-21T07:02:28;15.90;;;7.55;;
9675;SDS011;4876;42.656;23.292;2024-02-21T07:04:53;13.20;;;7.60;;
9675;SDS011;4876;42.656;23.292;2024-02-21T07:07:19;15.80;;;7.78;;
9675;SDS011;4876;42.656;23.292;2024-02-21T07:09:44;16.48;;;7.22;;
9675;SDS011;4876;42.656;23.292;2024-02-21T07:12:11;15.95;;;6.72;;
9675;SDS011;4876;42.656;23.292;2024-02-21T07:14:36;16.85;;;8.43;;
9675;SDS011;4876;42.656;23.292;2024-02-21T07:17:02;15.30;;;7.68;;
9675;SDS011;4876;42.656;23.292;2024-02-21T07:19:28;16.55;;;8.10;;
9675;SDS011;4876;42.656;23.292;2024-02-21T07:21:54;17.25;;;8.23;;
9675;SDS011;4876;42.656;23.292;2024-02-21T07:24:19;16.33;;;8.05;;
9675;SDS011;4876;42.656;23.292;2024-02-21T07:26:45;15.98;;;7.93;;
9675;SDS011;4876;42.656;23.292;2024-02-21T07:29:10;17.85;;;7.85;;
9675;SDS011;4876;42.656;23.292;2024-02-21T07:31:42;18.15;;;8.93;;
9675;SDS011;4876;42.656;23.292;2024-02-21T07:34:08;21.70;;;7.90;;
9675;SDS011;4876;42.656;23.292;2024-02-21T07:36:34;19.70;;;8.88;;
9675;SDS011;4876;42.656;23.292;2024-02-21T07:39:00;19.92;;;8.63;;
9675;SDS011;4876;42.656;23.292;2024-02-21T07:41:26;18.00;;;7.63;;
9675;SDS011;4876;42.656;23.292;2024-02-21T07:43:51;17.10;;;8.57;;
9675;SDS011;4876;42.656;23.292;2024-02-21T07:46:18;17.92;;;7.88;;
9675;SDS011;4876;42.656;23.292;2024-02-21T07:48:45;17.20;;;8.65;;
9675;SDS011;4876;42.656;23.292;2024-02-21T07:51:11;17.73;;;8.18;;
9675;SDS011;4876;42.656;23.292;2024-02-21T07:53:38;14.90;;;7.90;;
9675;SDS011;4876;42.656;23.292;2024-02-21T07:56:04;16.88;;;8.30;;
9675;SDS011;4876;42.656;23.292;2024-02-21T07:58:29;19.10;;;9.27;;
9675;SDS011;4876;42.656;23.292;2024-02-21T08:00:55;19.27;;;9.50;;
9675;SDS011;4876;42.656;23.292;2024-02-21T08:03:20;20.02;;;9.05;;
9675;SDS011;4876;42.656;23.292;2024-02-21T08:05:46;18.77;;;9.50;;
9675;SDS011;4876;42.656;23.292;2024-02-21T08:08:12;15.98;;;8.35;;
9675;SDS011;4876;42.656;23.292;2024-02-21T08:10:43;18.25;;;8.90;;
9675;SDS011;4876;42.656;23.292;2024-02-21T08:13:09;20.67;;;9.00;;
9675;SDS011;4876;42.656;23.292;2024-02-21T08:15:34;17.80;;;8.70;;
9675;SDS011;4876;42.656;23.292;2024-02-21T08:18:00;18.65;;;9.35;;
9675;SDS011;4876;42.656;23.292;2024-02-21T08:20:26;17.05;;;9.18;;
9675;SDS011;4876;42.656;23.292;2024-02-21T08:22:52;18.98;;;8.40;;
9675;SDS011;4876;42.656;23.292;2024-02-21T08:25:18;17.58;;;7.95;;
9675;SDS011;4876;42.656;23.292;2024-02-21T08:27:43;19.00;;;7.95;;
9675;SDS011;4876;42.656;23.292;2024-02-21T08:30:11;16.77;;;8.30;;
9675;SDS011;4876;42.656;23.292;2024-02-21T08:32:40;15.23;;;7.53;;
9675;SDS011;4876;42.656;23.292;2024-02-21T08:35:05;16.60;;;7.65;;
9675;SDS011;4876;42.656;23.292;2024-02-21T08:37:31;13.98;;;7.18;;
9675;SDS011;4876;42.656;23.292;2024-02-21T08:39:57;15.35;;;8.60;;
9675;SDS011;4876;42.656;23.292;2024-02-21T08:42:22;15.40;;;7.10;;
9675;SDS011;4876;42.656;23.292;2024-02-21T08:44:48;14.93;;;6.90;;
9675;SDS011;4876;42.656;23.292;2024-02-21T08:47:14;17.75;;;7.90;;
9675;SDS011;4876;42.656;23.292;2024-02-21T08:49:40;12.45;;;6.72;;
9675;SDS011;4876;42.656;23.292;2024-02-21T08:52:05;11.95;;;6.28;;
9675;SDS011;4876;42.656;23.292;2024-02-21T08:54:31;12.65;;;7.03;;
9675;SDS011;4876;42.656;23.292;2024-02-21T08:57:00;12.20;;;6.70;;
9675;SDS011;4876;42.656;23.292;2024-02-21T08:59:26;12.07;;;6.78;;
9675;SDS011;4876;42.656;23.292;2024-02-21T09:01:51;14.50;;;6.90;;
9675;SDS011;4876;42.656;23.292;2024-02-21T09:04:20;14.95;;;7.20;;
9675;SDS011;4876;42.656;23.292;2024-02-21T09:06:46;11.88;;;6.68;;
9675;SDS011;4876;42.656;23.292;2024-02-21T09:09:11;12.90;;;7.00;;
9675;SDS011;4876;42.656;23.292;2024-02-21T09:11:37;15.02;;;7.20;;
9675;SDS011;4876;42.656;23.292;2024-02-21T09:14:03;15.88;;;7.78;;
9675;SDS011;4876;42.656;23.292;2024-02-21T09:16:30;15.25;;;6.85;;
9675;SDS011;4876;42.656;23.292;2024-02-21T09:18:57;14.77;;;7.00;;
9675;SDS011;4876;42.656;23.292;2024-02-21T09:21:23;12.63;;;7.13;;
9675;SDS011;4876;42.656;23.292;2024-02-21T09:23:48;13.82;;;6.95;;
9675;SDS011;4876;42.656;23.292;2024-02-21T09:26:14;12.95;;;5.60;;
9675;SDS011;4876;42.656;23.292;2024-02-21T09:28:42;11.85;;;6.63;;
9675;SDS011;4876;42.656;23.292;2024-02-21T09:31:08;12.45;;;6.40;;
9675;SDS011;4876;42.656;23.292;2024-02-21T09:33:33;12.18;;;6.93;;
9675;SDS011;4876;42.656;23.292;2024-02-21T09:35:59;13.63;;;6.82;;
9675;SDS011;4876;42.656;23.292;2024-02-21T09:38:25;13.93;;;6.28;;
9675;SDS011;4876;42.656;23.292;2024-02-21T09:40:58;11.10;;;6.28;;
9675;SDS011;4876;42.656;23.292;2024-02-21T09:43:28;11.00;;;6.22;;
9675;SDS011;4876;42.656;23.292;2024-02-21T09:45:54;10.52;;;6.25;;
9675;SDS011;4876;42.656;23.292;2024-02-21T09:51:08;11.60;;;6.43;;
9675;SDS011;4876;42.656;23.292;2024-02-21T09:53:37;13.40;;;7.07;;
9675;SDS011;4876;42.656;23.292;2024-02-21T09:56:05;13.90;;;7.43;;
9675;SDS011;4876;42.656;23.292;2024-02-21T09:58:33;12.48;;;7.05;;
9675;SDS011;4876;42.656;23.292;2024-02-21T10:00:59;12.25;;;6.60;;
9675;SDS011;4876;42.656;23.292;2024-02-21T10:03:25;11.35;;;5.78;;
9675;SDS011;4876;42.656;23.292;2024-02-21T10:06:09;16.25;;;6.47;;
9675;SDS011;4876;42.656;23.292;2024-02-21T10:08:35;12.13;;;6.05;;
9675;SDS011;4876;42.656;23.292;2024-02-21T10:11:00;11.05;;;5.15;;
9675;SDS011;4876;42.656;23.292;2024-02-21T10:13:28;11.48;;;5.80;;
9675;SDS011;4876;42.656;23.292;2024-02-21T10:18:30;9.55;;;5.28;;
9675;SDS011;4876;42.656;23.292;2024-02-21T10:21:07;10.27;;;5.38;;
9675;SDS011;4876;42.656;23.292;2024-02-21T10:23:46;10.25;;;6.20;;
9675;SDS011;4876;42.656;23.292;2024-02-21T10:26:14;12.05;;;5.32;;
9675;SDS011;4876;42.656;23.292;2024-02-21T10:31:10;10.00;;;5.15;;
9675;SDS011;4876;42.656;23.292;2024-02-21T10:33:36;10.75;;;6.18;;
9675;SDS011;4876;42.656;23.292;2024-02-21T10:36:08;9.02;;;5.30;;
9675;SDS011;4876;42.656;23.292;2024-02-21T10:38:38;10.50;;;5.35;;
9675;SDS011;4876;42.656;23.292;2024-02-21T10:41:07;10.93;;;5.38;;
9675;SDS011;4876;42.656;23.292;2024-02-21T10:43:40;11.75;;;5.93;;
9675;SDS011;4876;42.656;23.292;2024-02-21T10:46:06;10.88;;;5.70;;
9675;SDS011;4876;42.656;23.292;2024-02-21T10:48:39;8.40;;;4.90;;
9675;SDS011;4876;42.656;23.292;2024-02-21T10:53:45;7.30;;;4.22;;
9675;SDS011;4876;42.656;23.292;2024-02-21T10:56:22;6.72;;;3.50;;
9675;SDS011;4876;42.656;23.292;2024-02-21T10:58:55;8.85;;;3.92;;
9675;SDS011;4876;42.656;23.292;2024-02-21T11:01:23;7.57;;;3.97;;
9675;SDS011;4876;42.656;23.292;2024-02-21T11:03:51;8.50;;;4.80;;
9675;SDS011;4876;42.656;23.292;2024-02-21T11:06:19;6.35;;;4.15;;
9675;SDS011;4876;42.656;23.292;2024-02-21T11:08:47;7.32;;;4.50;;
9675;SDS011;4876;42.656;23.292;2024-02-21T11:11:13;7.32;;;4.38;;
9675;SDS011;4876;42.656;23.292;2024-02-21T11:13:43;6.80;;;3.70;;
9675;SDS011;4876;42.656;23.292;2024-02-21T11:16:11;6.18;;;3.03;;
9675;SDS011;4876;42.656;23.292;2024-02-21T11:18:46;6.93;;;3.70;;
9675;SDS011;4876;42.656;23.292;2024-02-21T11:21:11;5.25;;;3.08;;
9675;SDS011;4876;42.656;23.292;2024-02-21T11:23:37;6.95;;;3.50;;
9675;SDS011;4876;42.656;23.292;2024-02-21T11:28:35;6.97;;;3.90;;
9675;SDS011;4876;42.656;23.292;2024-02-21T11:31:07;5.70;;;3.45;;
9675;SDS011;4876;42.656;23.292;2024-02-21T11:33:34;8.85;;;3.33;;
9675;SDS011;4876;42.656;23.292;2024-02-21T11:36:00;5.30;;;2.90;;
9675;SDS011;4876;42.656;23.292;2024-02-21T11:38:26;7.22;;;3.78;;
9675;SDS011;4876;42.656;23.292;2024-02-21T11:40:52;6.40;;;3.78;;
9675;SDS011;4876;42.656;23.292;2024-02-21T11:43:17;7.32;;;3.92;;
9675;SDS011;4876;42.656;23.292;2024-02-21T11:45:43;7.50;;;4.13;;
9675;SDS011;4876;42.656;23.292;2024-02-21T11:48:08;8.85;;;3.58;;
9675;SDS011;4876;42.656;23.292;2024-02-21T11:50:37;6.03;;;3.80;;
9675;SDS011;4876;42.656;23.292;2024-02-21T11:53:04;7.53;;;3.45;;
9675;SDS011;4876;42.656;23.292;2024-02-21T11:55:30;5.65;;;3.25;;
9675;SDS011;4876;42.656;23.292;2024-02-21T11:57:56;7.00;;;4.13;;
9675;SDS011;4876;42.656;23.292;2024-02-21T12:00:21;5.97;;;3.58;;
9675;SDS011;4876;42.656;23.292;2024-02-21T12:02:49;5.53;;;3.20;;
9675;SDS011;4876;42.656;23.292;2024-02-21T12:05:20;6.95;;;3.25;;
9675;SDS011;4876;42.656;23.292;2024-02-21T12:07:46;5.43;;;3.60;;
9675;SDS011;4876;42.656;23.292;2024-02-21T12:10:14;6.45;;;3.30;;
9675;SDS011;4876;42.656;23.292;2024-02-21T12:12:45;5.22;;;3.17;;
9675;SDS011;4876;42.656;23.292;2024-02-21T12:15:11;6.38;;;3.60;;
9675;SDS011;4876;42.656;23.292;2024-02-21T12:17:36;10.10;;;4.75;;
9675;SDS011;4876;42.656;23.292;2024-02-21T12:20:04;8.10;;;4.22;;
9675;SDS011;4876;42.656;23.292;2024-02-21T12:22:31;7.35;;;3.83;;
9675;SDS011;4876;42.656;23.292;2024-02-21T12:27:24;7.47;;;3.72;;
9675;SDS011;4876;42.656;23.292;2024-02-21T12:29:51;6.75;;;3.63;;
9675;SDS011;4876;42.656;23.292;2024-02-21T12:32:17;8.00;;;4.05;;
9675;SDS011;4876;42.656;23.292;2024-02-21T12:34:42;6.65;;;3.58;;
9675;SDS011;4876;42.656;23.292;2024-02-21T12:37:08;8.10;;;4.40;;
9675;SDS011;4876;42.656;23.292;2024-02-21T12:39:33;6.07;;;3.50;;
9675;SDS011;4876;42.656;23.292;2024-02-21T12:41:59;7.03;;;3.33;;
9675;SDS011;4876;42.656;23.292;2024-02-21T12:44:24;6.80;;;3.67;;
9675;SDS011;4876;42.656;23.292;2024-02-21T12:46:50;4.82;;;3.20;;
9675;SDS011;4876;42.656;23.292;2024-02-21T12:49:18;6.28;;;3.60;;
9675;SDS011;4876;42.656;23.292;2024-02-21T12:51:44;8.98;;;4.55;;
9675;SDS011;4876;42.656;23.292;2024-02-21T12:54:11;7.00;;;3.35;;
9675;SDS011;4876;42.656;23.292;2024-02-21T12:56:37;8.15;;;3.83;;
9675;SDS011;4876;42.656;23.292;2024-02-21T12:59:03;8.80;;;4.32;;
9675;SDS011;4876;42.656;23.292;2024-02-21T13:01:28;7.85;;;4.80;;
9675;SDS011;4876;42.656;23.292;2024-02-21T13:03:54;7.63;;;4.07;;
9675;SDS011;4876;42.656;23.292;2024-02-21T13:06:20;7.65;;;4.35;;
9675;SDS011;4876;42.656;23.292;2024-02-21T13:08:46;5.22;;;3.15;;
9675;SDS011;4876;42.656;23.292;2024-02-21T13:11:12;10.32;;;3.60;;
9675;SDS011;4876;42.656;23.292;2024-02-21T13:13:38;7.30;;;4.03;;
9675;SDS011;4876;42.656;23.292;2024-02-21T13:16:03;8.85;;;4.18;;
9675;SDS011;4876;42.656;23.292;2024-02-21T13:18:29;7.43;;;4.72;;
9675;SDS011;4876;42.656;23.292;2024-02-21T13:20:55;9.43;;;4.32;;
9675;SDS011;4876;42.656;23.292;2024-02-21T13:23:21;8.45;;;4.70;;
9675;SDS011;4876;42.656;23.292;2024-02-21T13:25:46;12.93;;;5.90;;
9675;SDS011;4876;42.656;23.292;2024-02-21T13:28:12;11.50;;;5.35;;
9675;SDS011;4876;42.656;23.292;2024-02-21T13:30:38;8.98;;;4.53;;
9675;SDS011;4876;42.656;23.292;2024-02-21T13:33:05;8.02;;;4.78;;
9675;SDS011;4876;42.656;23.292;2024-02-21T13:35:32;10.13;;;4.90;;
9675;SDS011;4876;42.656;23.292;2024-02-21T13:37:57;8.48;;;5.15;;
9675;SDS011;4876;42.656;23.292;2024-02-21T13:40:23;7.93;;;4.55;;
9675;SDS011;4876;42.656;23.292;2024-02-21T13:42:48;7.22;;;4.75;;
9675;SDS011;4876;42.656;23.292;2024-02-21T13:45:16;9.77;;;4.60;;
9675;SDS011;4876;42.656;23.292;2024-02-21T13:47:41;7.38;;;4.28;;
9675;SDS011;4876;42.656;23.292;2024-02-21T13:50:07;6.75;;;3.83;;
9675;SDS011;4876;42.656;23.292;2024-02-21T13:55:01;7.13;;;3.30;;
9675;SDS011;4876;42.656;23.292;2024-02-21T13:57:27;6.28;;;3.78;;
9675;SDS011;4876;42.656;23.292;2024-02-21T13:59:53;7.40;;;3.65;;
9675;SDS011;4876;42.656;23.292;2024-02-21T14:02:19;7.90;;;4.35;;
9675;SDS011;4876;42.656;23.292;2024-02-21T14:04:44;7.07;;;4.03;;
9675;SDS011;4876;42.656;23.292;2024-02-21T14:07:10;8.15;;;4.50;;
9675;SDS011;4876;42.656;23.292;2024-02-21T14:09:35;10.00;;;4.40;;
9675;SDS011;4876;42.656;23.292;2024-02-21T14:12:01;6.90;;;4.13;;
9675;SDS011;4876;42.656;23.292;2024-02-21T14:14:27;13.10;;;4.90;;
9675;SDS011;4876;42.656;23.292;2024-02-21T14:16:52;7.88;;;4.43;;
9675;SDS011;4876;42.656;23.292;2024-02-21T14:19:18;10.32;;;3.70;;
9675;SDS011;4876;42.656;23.292;2024-02-21T14:21:44;8.68;;;4.35;;
9675;SDS011;4876;42.656;23.292;2024-02-21T14:24:10;7.15;;;4.60;;
9675;SDS011;4876;42.656;23.292;2024-02-21T14:26:37;7.72;;;4.43;;
9675;SDS011;4876;42.656;23.292;2024-02-21T14:29:03;7.75;;;3.65;;
9675;SDS011;4876;42.656;23.292;2024-02-21T14:31:30;6.05;;;3.55;;
9675;SDS011;4876;42.656;23.292;2024-02-21T14:33:57;7.53;;;4.05;;
9675;SDS011;4876;42.656;23.292;2024-02-21T14:36:23;7.45;;;4.13;;
9675;SDS011;4876;42.656;23.292;2024-02-21T14:38:49;7.25;;;4.20;;
9675;SDS011;4876;42.656;23.292;2024-02-21T14:41:14;9.00;;;4.50;;
9675;SDS011;4876;42.656;23.292;2024-02-21T14:43:40;7.00;;;3.75;;
9675;SDS011;4876;42.656;23.292;2024-02-21T14:46:05;7.65;;;3.72;;
9675;SDS011;4876;42.656;23.292;2024-02-21T14:48:31;7.63;;;4.10;;
9675;SDS011;4876;42.656;23.292;2024-02-21T14:50:57;9.18;;;4.43;;
9675;SDS011;4876;42.656;23.292;2024-02-21T14:53:23;8.13;;;4.30;;
9675;SDS011;4876;42.656;23.292;2024-02-21T14:55:49;9.23;;;5.10;;
9675;SDS011;4876;42.656;23.292;2024-02-21T14:58:15;8.68;;;4.32;;
9675;SDS011;4876;42.656;23.292;2024-02-21T15:00:43;7.57;;;4.88;;
9675;SDS011;4876;42.656;23.292;2024-02-21T15:03:09;8.65;;;4.22;;
9675;SDS011;4876;42.656;23.292;2024-02-21T15:05:35;9.07;;;3.92;;
9675;SDS011;4876;42.656;23.292;2024-02-21T15:08:02;9.63;;;4.80;;
9675;SDS011;4876;42.656;23.292;2024-02-21T15:10:28;8.88;;;4.05;;
9675;SDS011;4876;42.656;23.292;2024-02-21T15:12:54;9.13;;;4.65;;
9675;SDS011;4876;42.656;23.292;2024-02-21T15:15:20;7.70;;;4.05;;
9675;SDS011;4876;42.656;23.292;2024-02-21T15:17:45;8.30;;;4.65;;
9675;SDS011;4876;42.656;23.292;2024-02-21T15:20:11;9.70;;;4.53;;